sensor_id;sensor_type;location;lat;lon;timestamp;pressure;altitude;pressure_sealevel;temperature;humidity
48404;BME280;34202;52.536;6.042;2023-04-02T00:02:33;101388.27;;;5.44;100.00
48404;BME280;34202;52.536;6.042;2023-04-02T00:07:34;101402.38;;;5.42;100.00
48404;BME280;34202;52.536;6.042;2023-04-02T00:12:37;101413.48;;;5.39;100.00
48404;BME280;34202;52.536;6.042;2023-04-02T00:17:37;101415.10;;;5.36;100.00
48404;BME280;34202;52.536;6.042;2023-04-02T00:22:40;101425.33;;;5.33;100.00
48404;BME280;34202;52.536;6.042;2023-04-02T00:27:43;101437.27;;;5.30;100.00
48404;BME280;34202;52.536;6.042;2023-04-02T00:32:43;101446.40;;;5.24;100.00
48404;BME280;34202;52.536;6.042;2023-04-02T00:37:44;101450.73;;;5.20;100.00
48404;BME280;34202;52.536;6.042;2023-04-02T00:42:45;101456.23;;;5.15;100.00
48404;BME280;34202;52.536;6.042;2023-04-02T00:47:47;101467.80;;;5.11;100.00
48404;BME280;34202;52.536;6.042;2023-04-02T00:52:48;101472.86;;;5.03;100.00
48404;BME280;34202;52.536;6.042;2023-04-02T00:57:50;101480.19;;;4.97;100.00
48404;BME280;34202;52.536;6.042;2023-04-02T01:08:21;101509.98;;;4.83;100.00
48404;BME280;34202;52.536;6.042;2023-04-02T01:13:35;101512.49;;;4.76;100.00
48404;BME280;34202;52.536;6.042;2023-04-02T01:23:52;101529.23;;;4.69;100.00
48404;BME280;34202;52.536;6.042;2023-04-02T01:28:55;101535.40;;;4.63;100.00
48404;BME280;34202;52.536;6.042;2023-04-02T01:33:59;101544.40;;;4.60;100.00
48404;BME280;34202;52.536;6.042;2023-04-02T01:39:08;101551.38;;;4.58;100.00
48404;BME280;34202;52.536;6.042;2023-04-02T01:44:13;101565.68;;;4.54;100.00
48404;BME280;34202;52.536;6.042;2023-04-02T01:49:18;101570.55;;;4.51;100.00
48404;BME280;34202;52.536;6.042;2023-04-02T01:54:19;101577.25;;;4.50;100.00
48404;BME280;34202;52.536;6.042;2023-04-02T01:59:20;101589.00;;;4.47;100.00
48404;BME280;34202;52.536;6.042;2023-04-02T02:04:21;101597.08;;;4.42;100.00
48404;BME280;34202;52.536;6.042;2023-04-02T02:09:32;101602.08;;;4.38;100.00
48404;BME280;34202;52.536;6.042;2023-04-02T02:14:34;101613.02;;;4.36;100.00
48404;BME280;34202;52.536;6.042;2023-04-02T02:19:35;101615.48;;;4.34;100.00
48404;BME280;34202;52.536;6.042;2023-04-02T02:24:37;101625.49;;;4.30;100.00
48404;BME280;34202;52.536;6.042;2023-04-02T02:29:37;101638.44;;;4.27;100.00
48404;BME280;34202;52.536;6.042;2023-04-02T02:34:42;101645.00;;;4.19;100.00
48404;BME280;34202;52.536;6.042;2023-04-02T02:39:46;101656.54;;;4.12;100.00
48404;BME280;34202;52.536;6.042;2023-04-02T02:44:51;101666.88;;;4.04;100.00
48404;BME280;34202;52.536;6.042;2023-04-02T02:49:54;101676.70;;;3.97;100.00
48404;BME280;34202;52.536;6.042;2023-04-02T02:54:56;101690.27;;;3.89;100.00
48404;BME280;34202;52.536;6.042;2023-04-02T02:59:58;101705.27;;;3.82;100.00
48404;BME280;34202;52.536;6.042;2023-04-02T03:05:00;101707.19;;;3.72;100.00
48404;BME280;34202;52.536;6.042;2023-04-02T03:20:38;101745.19;;;3.43;100.00
48404;BME280;34202;52.536;6.042;2023-04-02T03:25:51;101763.55;;;3.32;100.00
48404;BME280;34202;52.536;6.042;2023-04-02T03:41:08;101801.48;;;2.97;100.00
48404;BME280;34202;52.536;6.042;2023-04-02T03:51:24;101821.04;;;2.73;100.00
48404;BME280;34202;52.536;6.042;2023-04-02T03:56:30;101827.33;;;2.62;100.00
48404;BME280;34202;52.536;6.042;2023-04-02T04:01:36;101835.77;;;2.53;100.00
48404;BME280;34202;52.536;6.042;2023-04-02T04:06:41;101850.83;;;2.43;100.00
48404;BME280;34202;52.536;6.042;2023-04-02T04:11:44;101860.88;;;2.29;100.00
48404;BME280;34202;52.536;6.042;2023-04-02T04:17:08;101875.13;;;2.17;100.00
48404;BME280;34202;52.536;6.042;2023-04-02T04:32:35;101904.95;;;1.89;100.00
48404;BME280;34202;52.536;6.042;2023-04-02T04:37:38;101915.52;;;1.82;100.00
48404;BME280;34202;52.536;6.042;2023-04-02T04:42:40;101926.80;;;1.76;100.00
48404;BME280;34202;52.536;6.042;2023-04-02T04:47:45;101934.20;;;1.67;100.00
48404;BME280;34202;52.536;6.042;2023-04-02T04:52:48;101944.88;;;1.60;100.00
48404;BME280;34202;52.536;6.042;2023-04-02T04:57:49;101963.27;;;1.51;100.00
48404;BME280;34202;52.536;6.042;2023-04-02T05:02:57;101971.33;;;1.49;100.00
48404;BME280;34202;52.536;6.042;2023-04-02T05:08:09;101980.23;;;1.48;100.00
48404;BME280;34202;52.536;6.042;2023-04-02T05:13:24;101997.00;;;1.50;100.00
48404;BME280;34202;52.536;6.042;2023-04-02T05:23:28;102026.65;;;1.55;100.00
48404;BME280;34202;52.536;6.042;2023-04-02T05:33:38;102056.41;;;1.65;100.00
48404;BME280;34202;52.536;6.042;2023-04-02T05:38:44;102067.84;;;1.67;100.00
48404;BME280;34202;52.536;6.042;2023-04-02T05:43:46;102078.29;;;1.66;100.00
48404;BME280;34202;52.536;6.042;2023-04-02T05:48:48;102086.88;;;1.64;100.00
48404;BME280;34202;52.536;6.042;2023-04-02T05:53:54;102099.14;;;1.62;100.00
48404;BME280;34202;52.536;6.042;2023-04-02T05:58:56;102113.80;;;1.61;100.00
48404;BME280;34202;52.536;6.042;2023-04-02T06:04:06;102118.23;;;1.60;100.00
48404;BME280;34202;52.536;6.042;2023-04-02T06:09:18;102135.23;;;1.60;100.00
48404;BME280;34202;52.536;6.042;2023-04-02T06:14:21;102138.77;;;1.62;100.00
48404;BME280;34202;52.536;6.042;2023-04-02T06:19:26;102154.06;;;1.62;100.00
48404;BME280;34202;52.536;6.042;2023-04-02T06:24:29;102166.48;;;1.63;99.99
48404;BME280;34202;52.536;6.042;2023-04-02T06:29:34;102178.58;;;1.64;99.76
48404;BME280;34202;52.536;6.042;2023-04-02T06:34:39;102188.02;;;1.67;99.92
48404;BME280;34202;52.536;6.042;2023-04-02T06:39:40;102195.73;;;1.75;100.00
48404;BME280;34202;52.536;6.042;2023-04-02T06:44:40;102205.09;;;1.85;99.98
48404;BME280;34202;52.536;6.042;2023-04-02T06:54:41;102218.28;;;1.98;99.61
48404;BME280;34202;52.536;6.042;2023-04-02T06:59:41;102232.25;;;2.04;98.87
48404;BME280;34202;52.536;6.042;2023-04-02T07:04:42;102242.29;;;2.02;97.90
48404;BME280;34202;52.536;6.042;2023-04-02T07:09:42;102253.85;;;2.04;97.19
48404;BME280;34202;52.536;6.042;2023-04-02T07:14:42;102262.17;;;2.07;97.53
48404;BME280;34202;52.536;6.042;2023-04-02T07:19:46;102274.45;;;2.20;97.37
48404;BME280;34202;52.536;6.042;2023-04-02T07:24:50;102289.04;;;2.30;96.52
48404;BME280;34202;52.536;6.042;2023-04-02T07:29:50;102293.35;;;2.28;94.45
48404;BME280;34202;52.536;6.042;2023-04-02T07:34:50;102293.66;;;2.19;94.74
48404;BME280;34202;52.536;6.042;2023-04-02T07:39:50;102298.27;;;2.21;96.16
48404;BME280;34202;52.536;6.042;2023-04-02T07:44:51;102302.91;;;2.35;96.64
48404;BME280;34202;52.536;6.042;2023-04-02T07:49:52;102309.81;;;2.49;95.53
48404;BME280;34202;52.536;6.042;2023-04-02T07:54:53;102313.08;;;2.52;94.34
48404;BME280;34202;52.536;6.042;2023-04-02T07:59:53;102322.98;;;2.48;93.96
48404;BME280;34202;52.536;6.042;2023-04-02T08:04:56;102329.83;;;2.50;94.40
48404;BME280;34202;52.536;6.042;2023-04-02T08:09:56;102335.89;;;2.67;96.01
48404;BME280;34202;52.536;6.042;2023-04-02T08:14:56;102337.67;;;2.91;96.71
48404;BME280;34202;52.536;6.042;2023-04-02T08:19:57;102349.27;;;3.20;96.62
48404;BME280;34202;52.536;6.042;2023-04-02T08:25:00;102361.70;;;3.40;95.18
48404;BME280;34202;52.536;6.042;2023-04-02T08:30:00;102366.33;;;3.52;94.06
48404;BME280;34202;52.536;6.042;2023-04-02T08:35:00;102382.70;;;3.66;94.23
48404;BME280;34202;52.536;6.042;2023-04-02T08:40:01;102395.16;;;3.79;93.51
48404;BME280;34202;52.536;6.042;2023-04-02T08:45:19;102411.61;;;3.86;92.82
48404;BME280;34202;52.536;6.042;2023-04-02T08:55:35;102418.16;;;3.75;91.15
48404;BME280;34202;52.536;6.042;2023-04-02T09:00:39;102427.52;;;3.79;90.46
48404;BME280;34202;52.536;6.042;2023-04-02T09:05:41;102436.35;;;3.88;92.00
48404;BME280;34202;52.536;6.042;2023-04-02T09:10:44;102445.43;;;3.99;91.72
48404;BME280;34202;52.536;6.042;2023-04-02T09:15:47;102452.98;;;4.13;91.28
48404;BME280;34202;52.536;6.042;2023-04-02T09:20:49;102449.25;;;4.32;91.49
48404;BME280;34202;52.536;6.042;2023-04-02T09:25:51;102450.21;;;4.52;90.30
48404;BME280;34202;52.536;6.042;2023-04-02T09:35:55;102480.88;;;4.88;91.48
48404;BME280;34202;52.536;6.042;2023-04-02T09:41:00;102486.55;;;5.09;90.32
48404;BME280;34202;52.536;6.042;2023-04-02T09:51:05;102493.70;;;5.42;86.08
48404;BME280;34202;52.536;6.042;2023-04-02T09:56:08;102503.88;;;5.42;84.54
48404;BME280;34202;52.536;6.042;2023-04-02T10:01:43;102506.32;;;5.43;84.36
48404;BME280;34202;52.536;6.042;2023-04-02T10:06:36;102510.33;;;5.50;82.45
48404;BME280;34202;52.536;6.042;2023-04-02T10:11:37;102521.77;;;5.57;83.03
48404;BME280;34202;52.536;6.042;2023-04-02T10:16:38;102529.84;;;5.69;85.01
48404;BME280;34202;52.536;6.042;2023-04-02T10:21:40;102537.93;;;5.91;85.33
48404;BME280;34202;52.536;6.042;2023-04-02T10:36:49;102537.34;;;6.33;82.97
48404;BME280;34202;52.536;6.042;2023-04-02T10:52:08;102558.45;;;6.84;83.27
48404;BME280;34202;52.536;6.042;2023-04-02T11:07:56;102571.44;;;6.95;79.19
48404;BME280;34202;52.536;6.042;2023-04-02T11:13:41;102574.16;;;7.12;79.76
48404;BME280;34202;52.536;6.042;2023-04-02T11:18:26;102584.19;;;7.22;75.94
48404;BME280;34202;52.536;6.042;2023-04-02T11:23:28;102590.05;;;7.29;77.78
48404;BME280;34202;52.536;6.042;2023-04-02T11:28:29;102595.23;;;7.43;77.34
48404;BME280;34202;52.536;6.042;2023-04-02T11:38:47;102590.73;;;7.73;78.39
48404;BME280;34202;52.536;6.042;2023-04-02T11:43:49;102600.34;;;7.86;75.99
48404;BME280;34202;52.536;6.042;2023-04-02T11:48:49;102596.92;;;7.94;77.31
48404;BME280;34202;52.536;6.042;2023-04-02T11:53:50;102605.88;;;8.08;74.78
48404;BME280;34202;52.536;6.042;2023-04-02T12:04:35;102610.70;;;8.35;74.28
48404;BME280;34202;52.536;6.042;2023-04-02T12:09:45;102608.14;;;8.40;74.21
48404;BME280;34202;52.536;6.042;2023-04-02T12:14:52;102607.98;;;8.52;73.52
48404;BME280;34202;52.536;6.042;2023-04-02T12:19:55;102616.26;;;8.58;73.20
48404;BME280;34202;52.536;6.042;2023-04-02T12:24:58;102617.56;;;8.61;71.08
48404;BME280;34202;52.536;6.042;2023-04-02T12:35:20;102627.68;;;8.94;74.03
48404;BME280;34202;52.536;6.042;2023-04-02T12:40:24;102637.29;;;9.08;73.64
48404;BME280;34202;52.536;6.042;2023-04-02T12:45:26;102636.45;;;9.17;72.56
48404;BME280;34202;52.536;6.042;2023-04-02T12:50:27;102637.17;;;9.18;71.53
48404;BME280;34202;52.536;6.042;2023-04-02T12:55:28;102642.88;;;9.21;70.37
48404;BME280;34202;52.536;6.042;2023-04-02T13:00:29;102649.47;;;9.21;70.29
48404;BME280;34202;52.536;6.042;2023-04-02T13:10:31;102657.66;;;9.48;71.66
48404;BME280;34202;52.536;6.042;2023-04-02T13:15:32;102664.75;;;9.60;70.21
48404;BME280;34202;52.536;6.042;2023-04-02T13:20:37;102660.83;;;9.66;70.13
48404;BME280;34202;52.536;6.042;2023-04-02T13:25:38;102666.32;;;9.77;71.26
48404;BME280;34202;52.536;6.042;2023-04-02T13:30:38;102674.23;;;9.89;70.10
48404;BME280;34202;52.536;6.042;2023-04-02T13:35:39;102667.98;;;9.85;67.77
48404;BME280;34202;52.536;6.042;2023-04-02T13:40:40;102657.52;;;9.79;67.74
48404;BME280;34202;52.536;6.042;2023-04-02T13:45:40;102654.60;;;9.71;64.30
48404;BME280;34202;52.536;6.042;2023-04-02T13:50:41;102659.02;;;9.64;65.55
48404;BME280;34202;52.536;6.042;2023-04-02T13:55:41;102664.45;;;9.61;65.39
48404;BME280;34202;52.536;6.042;2023-04-02T14:00:42;102663.15;;;9.63;66.70
48404;BME280;34202;52.536;6.042;2023-04-02T14:31:47;102690.29;;;10.04;67.05
48404;BME280;34202;52.536;6.042;2023-04-02T14:42:11;102701.52;;;9.97;64.84
48404;BME280;34202;52.536;6.042;2023-04-02T14:47:23;102700.66;;;9.98;66.58
48404;BME280;34202;52.536;6.042;2023-04-02T14:52:25;102706.70;;;10.05;65.64
48404;BME280;34202;52.536;6.042;2023-04-02T14:57:31;102710.37;;;10.01;64.21
48404;BME280;34202;52.536;6.042;2023-04-02T15:02:48;102715.86;;;9.95;64.51
48404;BME280;34202;52.536;6.042;2023-04-02T15:08:02;102713.55;;;9.94;65.42
48404;BME280;34202;52.536;6.042;2023-04-02T15:13:05;102716.86;;;9.98;65.00
48404;BME280;34202;52.536;6.042;2023-04-02T15:18:12;102716.66;;;9.93;64.73
48404;BME280;34202;52.536;6.042;2023-04-02T15:23:15;102715.27;;;9.89;64.96
48404;BME280;34202;52.536;6.042;2023-04-02T15:44:14;102731.04;;;9.70;65.83
48404;BME280;34202;52.536;6.042;2023-04-02T15:54:35;102740.23;;;9.61;66.36
48404;BME280;34202;52.536;6.042;2023-04-02T16:15:20;102772.59;;;9.36;65.39
48404;BME280;34202;52.536;6.042;2023-04-02T16:20:23;102784.04;;;9.32;65.55
48404;BME280;34202;52.536;6.042;2023-04-02T16:25:26;102779.29;;;9.27;65.07
48404;BME280;34202;52.536;6.042;2023-04-02T17:01:19;102811.48;;;8.92;67.01
48404;BME280;34202;52.536;6.042;2023-04-02T17:12:13;102837.35;;;8.80;67.26
48404;BME280;34202;52.536;6.042;2023-04-02T17:16:55;102840.20;;;8.75;67.52
48404;BME280;34202;52.536;6.042;2023-04-02T17:21:58;102849.40;;;8.67;67.09
48404;BME280;34202;52.536;6.042;2023-04-02T17:27:02;102852.52;;;8.60;67.30
48404;BME280;34202;52.536;6.042;2023-04-02T17:32:05;102861.55;;;8.52;67.76
48404;BME280;34202;52.536;6.042;2023-04-02T17:47:21;102877.33;;;8.27;67.92
48404;BME280;34202;52.536;6.042;2023-04-02T17:57:41;102891.45;;;8.08;68.76
48404;BME280;34202;52.536;6.042;2023-04-02T18:03:06;102900.27;;;7.97;69.10
48404;BME280;34202;52.536;6.042;2023-04-02T18:13:28;102914.98;;;7.72;69.78
48404;BME280;34202;52.536;6.042;2023-04-02T18:34:02;102952.60;;;7.30;70.38
48404;BME280;34202;52.536;6.042;2023-04-02T18:44:25;102961.50;;;7.02;70.49
48404;BME280;34202;52.536;6.042;2023-04-02T18:49:37;102967.98;;;6.91;70.70
48404;BME280;34202;52.536;6.042;2023-04-02T18:54:40;102977.40;;;6.80;70.71
48404;BME280;34202;52.536;6.042;2023-04-02T18:59:59;102990.51;;;6.70;70.65
48404;BME280;34202;52.536;6.042;2023-04-02T19:15:28;103008.00;;;6.40;71.15
48404;BME280;34202;52.536;6.042;2023-04-02T19:20:43;103015.92;;;6.31;71.33
48404;BME280;34202;52.536;6.042;2023-04-02T19:25:56;103031.69;;;6.22;71.25
48404;BME280;34202;52.536;6.042;2023-04-02T19:31:22;103034.92;;;6.13;71.20
48404;BME280;34202;52.536;6.042;2023-04-02T19:41:42;103039.92;;;5.95;71.23
48404;BME280;34202;52.536;6.042;2023-04-02T19:46:43;103052.05;;;5.88;71.44
48404;BME280;34202;52.536;6.042;2023-04-02T19:51:43;103062.11;;;5.80;71.29
48404;BME280;34202;52.536;6.042;2023-04-02T19:56:44;103065.79;;;5.73;71.31
48404;BME280;34202;52.536;6.042;2023-04-02T20:01:45;103078.66;;;5.66;71.35
48404;BME280;34202;52.536;6.042;2023-04-02T20:06:46;103079.83;;;5.56;71.17
48404;BME280;34202;52.536;6.042;2023-04-02T20:11:46;103083.28;;;5.49;71.26
48404;BME280;34202;52.536;6.042;2023-04-02T20:16:46;103091.52;;;5.42;71.41
48404;BME280;34202;52.536;6.042;2023-04-02T20:21:46;103094.41;;;5.36;71.36
48404;BME280;34202;52.536;6.042;2023-04-02T20:26:47;103096.92;;;5.26;71.48
48404;BME280;34202;52.536;6.042;2023-04-02T20:31:47;103100.66;;;5.18;71.77
48404;BME280;34202;52.536;6.042;2023-04-02T20:36:47;103105.98;;;5.09;72.13
48404;BME280;34202;52.536;6.042;2023-04-02T20:41:48;103111.13;;;5.01;72.44
48404;BME280;34202;52.536;6.042;2023-04-02T20:46:48;103123.52;;;4.93;72.48
48404;BME280;34202;52.536;6.042;2023-04-02T20:51:48;103128.36;;;4.84;72.62
48404;BME280;34202;52.536;6.042;2023-04-02T20:56:49;103133.89;;;4.77;72.62
48404;BME280;34202;52.536;6.042;2023-04-02T21:01:49;103137.36;;;4.70;72.64
48404;BME280;34202;52.536;6.042;2023-04-02T21:06:49;103143.77;;;4.62;72.68
48404;BME280;34202;52.536;6.042;2023-04-02T21:11:55;103151.04;;;4.55;72.58
48404;BME280;34202;52.536;6.042;2023-04-02T21:16:56;103160.36;;;4.50;73.05
48404;BME280;34202;52.536;6.042;2023-04-02T21:21:56;103164.94;;;4.44;72.94
48404;BME280;34202;52.536;6.042;2023-04-02T21:26:56;103169.46;;;4.37;72.82
48404;BME280;34202;52.536;6.042;2023-04-02T21:31:56;103171.27;;;4.31;73.16
48404;BME280;34202;52.536;6.042;2023-04-02T21:36:56;103173.74;;;4.25;73.25
48404;BME280;34202;52.536;6.042;2023-04-02T21:41:57;103179.64;;;4.18;73.65
48404;BME280;34202;52.536;6.042;2023-04-02T21:46:57;103187.30;;;4.11;73.76
48404;BME280;34202;52.536;6.042;2023-04-02T21:51:57;103191.23;;;4.03;73.96
48404;BME280;34202;52.536;6.042;2023-04-02T21:56:58;103194.80;;;3.95;74.24
48404;BME280;34202;52.536;6.042;2023-04-02T22:01:58;103202.70;;;3.87;74.27
48404;BME280;34202;52.536;6.042;2023-04-02T22:06:59;103204.17;;;3.79;74.44
48404;BME280;34202;52.536;6.042;2023-04-02T22:11:59;103204.70;;;3.73;74.87
48404;BME280;34202;52.536;6.042;2023-04-02T22:17:00;103209.67;;;3.67;74.99
48404;BME280;34202;52.536;6.042;2023-04-02T22:22:02;103209.90;;;3.63;75.63
48404;BME280;34202;52.536;6.042;2023-04-02T22:27:02;103210.31;;;3.59;75.76
48404;BME280;34202;52.536;6.042;2023-04-02T22:32:03;103215.61;;;3.55;75.94
48404;BME280;34202;52.536;6.042;2023-04-02T22:37:03;103220.34;;;3.48;75.94
48404;BME280;34202;52.536;6.042;2023-04-02T22:42:03;103221.12;;;3.43;76.20
48404;BME280;34202;52.536;6.042;2023-04-02T22:47:03;103224.89;;;3.38;76.36
48404;BME280;34202;52.536;6.042;2023-04-02T22:52:04;103221.98;;;3.31;76.60
48404;BME280;34202;52.536;6.042;2023-04-02T22:57:05;103227.59;;;3.25;76.94
48404;BME280;34202;52.536;6.042;2023-04-02T23:02:06;103231.69;;;3.20;77.38
48404;BME280;34202;52.536;6.042;2023-04-02T23:07:06;103234.96;;;3.16;77.72
48404;BME280;34202;52.536;6.042;2023-04-02T23:12:06;103241.52;;;3.11;77.85
48404;BME280;34202;52.536;6.042;2023-04-02T23:17:07;103241.41;;;3.05;78.02
48404;BME280;34202;52.536;6.042;2023-04-02T23:22:07;103240.67;;;3.00;78.65
48404;BME280;34202;52.536;6.042;2023-04-02T23:27:08;103243.02;;;2.95;78.60
48404;BME280;34202;52.536;6.042;2023-04-02T23:32:09;103240.70;;;2.89;78.88
48404;BME280;34202;52.536;6.042;2023-04-02T23:37:10;103240.73;;;2.85;79.07
48404;BME280;34202;52.536;6.042;2023-04-02T23:42:10;103244.95;;;2.80;79.11
48404;BME280;34202;52.536;6.042;2023-04-02T23:47:11;103249.91;;;2.75;79.42
48404;BME280;34202;52.536;6.042;2023-04-02T23:52:11;103250.49;;;2.71;79.74
48404;BME280;34202;52.536;6.042;2023-04-02T23:57:11;103252.52;;;2.68;79.92
